Latest Coastal Weather Observations for Lake Macquarie - Cooranbong

IDN60701

Issued at 12:42 am EST Monday 25 July 2016 (issued every 10 minutes, with the page automatically refreshed every 10 minutes)

About coastal observations | Map of coastal stations | Coastal observations for NSW | Marine services | Other Formats
Station Details ID: 061412 Name: LAKE MACQUARIE AWS Lat: -33.09 Lon: 151.46 Height: 6.0 m
Data from the previous 72 hours. | See also: Recent months at Lake Macquarie - Cooranbong
Date/Time
EST
Temp
°C
Wind Pressure Rain since
9am
mm
Weather Cloud Vis
km
Sea
Height
m
Swell
Dir  Spd
kts
Gust
kts
hPa Trend Height
m
Period
s
Dir
25/12:30am 2.0 CALM 0 0 1013.0 - 0.0 - - - - - - -
25/12:00am 2.3 CALM 0 0 1013.3 - 0.0 - - - - - - -
 
Date/Time
EST
Temp
°C
Wind Pressure Rain since
9am
mm
Weather Cloud Vis
km
Sea
Height
m
Swell
Dir  Spd
kts
Gust
kts
hPa Trend Height
m
Period
s
Dir
24/11:30pm 2.2 CALM 0 0 1013.8 - 0.0 - - - - - - -
24/11:00pm 2.1 N 3 4 1013.9 - 0.0 - - - - - - -
24/10:30pm 2.3 NNW 1 2 1014.1 - 0.0 - - - - - - -
24/10:00pm 2.9 CALM 0 2 1014.3 - 0.0 - - - - - - -
24/09:30pm 3.2 N 2 3 1014.5 - 0.0 - - - - - - -
24/09:00pm 3.8 CALM 0 1 1014.9 - 0.0 - - - - - - -
24/08:30pm 3.6 NNE 2 3 1015.1 - 0.0 - - - - - - -
24/08:00pm 4.5 NNW 3 3 1015.3 - 0.0 - - - - - - -
24/07:30pm 4.6 NNW 2 3 1015.2 - 0.0 - - - - - - -
24/07:00pm 5.3 N 3 4 1015.0 - 0.0 - - - - - - -
24/06:30pm 6.1 NNW 2 2 1014.5 - 0.0 - - - - - - -
24/06:00pm 6.9 NNW 3 5 1014.1 - 0.0 - - - - - - -
24/05:30pm 7.5 NW 1 2 1013.7 - 0.0 - - - - - - -
24/05:00pm 8.8 CALM 0 0 1013.4 - 0.0 - - - - - - -
24/04:30pm 10.9 NW 1 4 1013.3 - 0.0 - - - - - - -
24/04:00pm 11.6 WNW 4 8 1013.3 - 0.0 - - - - - - -
24/03:30pm 11.9 WNW 3 5 1013.3 - 0.0 - - - - - - -
24/03:00pm 11.9 NW 2 5 1013.5 - 0.0 - - - - - - -
24/02:30pm 11.7 WNW 4 7 1013.7 - 0.0 - - - - - - -
24/02:00pm 11.6 NW 3 5 1013.5 - 0.0 - - - - - - -
24/01:30pm 11.6 NW 4 6 1013.6 - 0.0 - - - - - - -
24/01:00pm 11.7 NNW 5 9 1014.2 - 0.0 - - - - - - -
24/12:30pm 11.5 NW 5 8 1015.0 - 0.0 - - - - - - -
24/12:00pm 11.2 NW 5 10 1016.0 - 0.0 - - - - - - -
24/11:30am 11.1 NW 6 11 1016.5 - 0.0 - - - - - - -
24/11:00am 10.6 NW 4 6 1016.9 - 0.0 - - - - - - -
24/10:30am 10.4 NW 4 7 1016.8 - 0.0 - - - - - - -
24/10:00am 10.0 NW 4 7 1016.8 - 0.0 - - - - - - -
24/09:30am 9.3 WNW 4 8 1016.9 - 0.0 - - - - - - -
24/09:00am 6.5 CALM 0 2 1016.9 - 0.0 - - - - - - -
24/08:30am 4.8 CALM 0 0 1016.9 - 0.0 - - - - - - -
24/08:00am 3.5 CALM 0 0 1016.3 - 0.0 - - - - - - -
24/07:30am 2.0 E 1 3 1015.9 - 0.0 - - - - - - -
24/07:00am 1.8 CALM 0 0 1016.2 - 0.0 - - - - - - -
24/06:30am 2.1 CALM 0 0 1016.1 - 0.0 - - - - - - -
24/06:00am 2.5 CALM 0 2 1016.2 - 0.0 - - - - - - -
24/05:30am 2.5 E 1 4 1016.0 - 0.0 - - - - - - -
24/05:00am 3.2 CALM 0 0 1015.9 - 0.0 - - - - - - -
24/04:30am 3.1 NNE 1 3 1015.6 - 0.0 - - - - - - -
24/04:00am 4.0 CALM 0 0 1015.3 - 0.0 - - - - - - -
24/03:30am 4.7 CALM 0 0 1015.0 - 0.0 - - - - - - -
24/03:00am 6.1 W 2 4 1015.1 - 0.0 - - - - - - -
24/02:30am 8.5 S 2 7 1015.3 - 0.0 - - - - - - -
24/02:00am 9.4 WSW 5 9 1014.8 - 0.0 - - - - - - -
24/01:30am 4.8 N 1 3 1014.9 - 0.0 - - - - - - -
24/01:00am 5.0 NNW 1 2 1014.6 - 0.0 - - - - - - -
24/12:30am 5.4 CALM 0 0 1014.3 - 0.0 - - - - - - -
24/12:00am 5.8 NW 2 3 1014.4 - 0.0 - - - - - - -
 
Date/Time
EST
Temp
°C
Wind Pressure Rain since
9am
mm
Weather Cloud Vis
km
Sea
Height
m
Swell
Dir  Spd
kts
Gust
kts
hPa Trend Height
m
Period
s
Dir
23/11:30pm 7.7 WNW 3 5 1014.1 - 0.0 - - - - - - -
23/11:00pm 5.7 N 2 2 1013.8 - 0.0 - - - - - - -
23/10:30pm 7.2 SSE 1 2 1013.8 - 0.0 - - - - - - -
23/10:00pm 7.6 CALM 0 1 1013.3 - 0.0 - - - - - - -
23/09:30pm 8.6 CALM 0 1 1012.9 - 0.0 - - - - - - -
23/09:00pm 10.8 NW 2 6 1012.0 - 0.0 - - - - - - -
23/08:30pm 11.9 WNW 4 8 1012.0 - 0.0 - - - - - - -
23/08:00pm 12.5 WNW 4 7 1011.6 - 0.0 - - - - - - -
23/07:30pm 12.7 WSW 4 9 1010.8 - 0.0 - - - - - - -
23/07:00pm 12.6 NW 3 7 1010.0 - 0.0 - - - - - - -
23/06:30pm 13.1 W 3 9 1009.8 - 0.0 - - - - - - -
23/06:00pm 13.7 WNW 6 14 1009.1 - 0.0 - - - - - - -
23/05:30pm 14.0 NW 7 11 1008.7 - 0.0 - - - - - - -
23/05:00pm 14.9 WNW 11 20 1008.3 - 0.0 - - - - - - -
23/04:30pm 15.8 WNW 9 21 1007.7 - 0.0 - - - - - - -
23/04:00pm 16.3 WNW 12 29 1006.8 - 0.0 - - - - - - -
23/03:30pm 16.9 WNW 11 31 1006.3 - 0.0 - - - - - - -
23/03:00pm 17.3 W 11 19 1005.6 - 0.0 - - - - - - -
23/02:30pm 17.5 WNW 11 23 1005.1 - 0.0 - - - - - - -
23/02:00pm 17.4 WNW 12 25 1004.8 - 0.0 - - - - - - -
23/01:30pm 17.5 WNW 11 20 1004.7 - 0.0 - - - - - - -
23/01:05pm 17.2 WNW 15 26 1004.7 - 0.0 - - - - - - -
23/01:00pm 17.3 WNW 12 24 1004.7 - 0.0 - - - - - - -
23/12:51pm 17.1 WNW 15 30 1004.6 - 0.0 - - - - - - -
23/12:30pm 17.1 NW 14 31 1004.7 - 0.0 - - - - - - -
23/12:00pm 17.6 WNW 10 25 1005.0 - 0.0 - - - - - - -
23/11:30am 17.1 W 9 18 1005.2 - 0.0 - - - - - - -
23/11:00am 16.6 WNW 11 25 1005.4 - 0.0 - - - - - - -
23/10:30am 16.5 WNW 13 29 1005.6 - 0.0 - - - - - - -
23/10:20am 16.4 WNW 11 26 1005.7 - 0.0 - - - - - - -
23/10:00am 16.5 WNW 12 25 1005.8 - 0.0 - - - - - - -
23/09:48am 16.4 WNW 13 24 1005.8 - 0.0 - - - - - - -
23/09:30am 16.9 WNW 8 19 1005.8 - 0.0 - - - - - - -
23/09:14am 16.6 W 15 28 1005.6 - 0.0 - - - - - - -
23/09:00am 16.8 WNW 10 20 1005.5 - 2.4 - - - - - - -
23/08:30am 16.8 WNW 10 22 1005.1 - 2.4 - - - - - - -
23/08:00am 16.6 WNW 10 20 1004.8 - 2.4 - - - - - - -
23/07:30am 16.1 WNW 8 15 1004.1 - 2.4 - - - - - - -
23/07:00am 16.1 WNW 9 22 1003.6 - 2.4 - - - - - - -
23/06:30am 16.1 WNW 7 14 1003.2 - 2.4 - - - - - - -
23/06:00am 16.2 WNW 6 13 1002.1 - 2.4 - - - - - - -
23/05:30am 16.3 WNW 6 16 1001.3 - 2.4 - - - - - - -
23/05:00am 16.7 W 7 15 1000.6 - 2.4 - - - - - - -
23/04:30am 16.9 WNW 9 16 999.8 - 2.4 - - - - - - -
23/04:00am 17.1 WNW 9 18 999.6 - 2.4 - - - - - - -
23/03:30am 17.8 W 13 24 999.0 - 2.4 - - - - - - -
23/03:00am 17.7 WSW 10 19 998.7 - 2.4 Rain - - - - - -
23/02:57am 17.9 WSW 11 22 998.7 - 2.4 - - - - - - -
23/02:30am 22.9 WNW 7 14 997.1 - 0.0 - - - - - - -
23/02:00am 23.3 WNW 9 22 997.1 - 0.0 - - - - - - -
23/01:30am 24.5 NW 10 20 997.2 - 0.0 - - - - - - -
23/01:00am 24.8 NW 10 20 997.1 - 0.0 - - - - - - -
23/12:30am 24.8 NW 10 23 997.2 - 0.0 - - - - - - -
23/12:00am 24.7 NW 10 17 997.5 - 0.0 - - - - - - -
 
Date/Time
EST
Temp
°C
Wind Pressure Rain since
9am
mm
Weather Cloud Vis
km
Sea
Height
m
Swell
Dir  Spd
kts
Gust
kts
hPa Trend Height
m
Period
s
Dir
22/11:30pm 24.2 NNW 9 17 997.7 - 0.0 - - - - - - -
22/11:00pm 23.9 NNW 11 25 998.1 - 0.0 - - - - - - -
22/10:30pm 24.0 NNW 11 19 998.5 - 0.0 - - - - - - -
22/10:00pm 23.7 NNW 9 19 999.4 - 0.0 - - - - - - -
22/09:30pm 23.6 NNW 9 19 1000.0 - 0.0 - - - - - - -
22/09:00pm 23.2 NNW 9 16 1000.8 - 0.0 - - - - - - -
22/08:30pm 23.1 NNW 7 14 1001.2 - 0.0 - - - - - - -
22/08:00pm 22.9 NNW 5 13 1001.8 - 0.0 - - - - - - -
22/07:30pm 22.5 NNW 5 10 1001.8 - 0.0 - - - - - - -
22/07:00pm 22.4 N 5 12 1001.4 - 0.0 - - - - - - -
22/06:30pm 22.3 NNW 4 9 1002.3 - 0.0 - - - - - - -
22/06:00pm 22.9 N 5 9 1002.0 - 0.0 - - - - - - -
22/05:30pm 23.3 NW 6 12 1002.4 - 0.0 - - - - - - -
22/05:00pm 23.5 NNW 7 16 1001.7 - 0.0 - - - - - - -
22/04:30pm 23.8 NNW 8 16 1001.8 - 0.0 - - - - - - -
22/04:00pm 24.4 NNW 7 15 1002.4 - 0.0 - - - - - - -
22/03:30pm 25.1 N 5 10 1003.1 - 0.0 - - - - - - -
22/03:00pm 24.8 NNW 6 10 1003.3 - 0.0 - - - - - - -
22/02:30pm 24.9 NNW 7 13 1003.6 - 0.0 - - - - - - -
22/02:00pm 24.6 NNW 5 11 1004.4 - 0.0 - - - - - - -
22/01:30pm 23.7 NNW 8 16 1004.8 - 0.0 - - - - - - -
22/01:00pm 23.9 NNW 8 15 1005.2 - 0.0 - - - - - - -
22/12:30pm 23.4 NNW 11 19 1005.8 - 0.0 - - - - - - -
22/12:00pm 23.2 NNW 10 23 1006.7 - 0.0 - - - - - - -
22/11:30am 22.9 N 9 17 1007.6 - 0.0 - - - - - - -
22/11:00am 21.6 N 8 16 1008.8 - 0.0 - - - - - - -
22/10:30am 21.3 N 9 14 1009.5 - 0.0 - - - - - - -
22/10:00am 21.3 NNW 7 13 1010.5 - 0.0 - - - - - - -
22/09:30am 20.8 NNW 7 11 1010.8 - 0.0 - - - - - - -
22/09:00am 20.4 NW 6 10 1011.1 - 0.2 - - - - - - -
22/08:30am 19.8 NNW 8 14 1011.1 - 0.2 - - - - - - -
22/08:00am 18.7 NNW 7 13 1011.2 - 0.2 - - - - - - -
22/07:30am 17.5 NNW 7 13 1011.2 - 0.2 - - - - - - -
22/07:00am 16.8 NW 6 11 1011.1 - 0.2 - - - - - - -
22/06:30am 14.9 NNW 5 10 1011.4 - 0.2 - - - - - - -
22/06:24am 13.8 NNW 4 7 1011.3 - 0.2 - - - - - - -
22/06:00am 8.6 NNW 1 2 1011.5 - 0.2 - - - - - - -
22/05:30am 8.4 CALM 0 0 1011.6 - 0.2 - - - - - - -
22/05:00am 8.3 CALM 0 0 1011.7 - 0.2 - - - - - - -
22/04:30am 8.4 CALM 0 0 1012.0 - 0.2 - - - - - - -
22/04:00am 8.4 CALM 0 0 1012.4 - 0.2 - - - - - - -
22/03:30am 8.4 CALM 0 0 1013.0 - 0.2 - - - - - - -
22/03:00am 8.6 CALM 0 0 1013.4 - 0.2 - - - - - - -
22/02:30am 8.9 CALM 0 0 1013.4 - 0.2 - - - - - - -
22/02:00am 8.8 CALM 0 0 1013.7 - 0.2 - - - - - - -
22/01:30am 9.1 CALM 0 0 1014.2 - 0.2 - - - - - - -
22/01:00am 9.3 CALM 0 0 1014.7 - 0.2 - - - - - - -

Other Formats:

Comma delimited format used in spreadsheet applications
http://www.bom.gov.au/fwo/IDN60701/IDN60701.95767.axf

JavaScript Object Notation format (JSON) in row-major order
http://www.bom.gov.au/fwo/IDN60701/IDN60701.95767.json